sensor_id;sensor_type;location;lat;lon;timestamp;P1;durP1;ratioP1;P2;durP2;ratioP2
68089;SDS011;54880;50.986;6.990;2023-06-14T00:00:19;10.83;;;5.70;;
68089;SDS011;54880;50.986;6.990;2023-06-14T00:02:45;10.55;;;6.15;;
68089;SDS011;54880;50.986;6.990;2023-06-14T00:05:10;9.10;;;5.77;;
68089;SDS011;54880;50.986;6.990;2023-06-14T00:07:38;8.90;;;5.60;;
68089;SDS011;54880;50.986;6.990;2023-06-14T00:10:07;10.25;;;6.00;;
68089;SDS011;54880;50.986;6.990;2023-06-14T00:12:33;10.50;;;5.87;;
68089;SDS011;54880;50.986;6.990;2023-06-14T00:14:58;8.87;;;5.70;;
68089;SDS011;54880;50.986;6.990;2023-06-14T00:17:23;10.40;;;5.93;;
68089;SDS011;54880;50.986;6.990;2023-06-14T00:19:49;10.35;;;6.10;;
68089;SDS011;54880;50.986;6.990;2023-06-14T00:22:15;9.80;;;6.10;;
68089;SDS011;54880;50.986;6.990;2023-06-14T00:24:40;8.73;;;5.93;;
68089;SDS011;54880;50.986;6.990;2023-06-14T00:27:05;12.23;;;6.47;;
68089;SDS011;54880;50.986;6.990;2023-06-14T00:29:31;11.20;;;5.88;;
68089;SDS011;54880;50.986;6.990;2023-06-14T00:31:56;9.87;;;5.80;;
68089;SDS011;54880;50.986;6.990;2023-06-14T00:34:22;9.50;;;5.83;;
68089;SDS011;54880;50.986;6.990;2023-06-14T00:36:47;9.67;;;5.93;;
68089;SDS011;54880;50.986;6.990;2023-06-14T00:39:13;12.80;;;6.50;;
68089;SDS011;54880;50.986;6.990;2023-06-14T00:41:39;12.80;;;6.00;;
68089;SDS011;54880;50.986;6.990;2023-06-14T00:44:04;13.07;;;5.80;;
68089;SDS011;54880;50.986;6.990;2023-06-14T00:46:30;13.93;;;6.10;;
68089;SDS011;54880;50.986;6.990;2023-06-14T00:48:56;10.33;;;5.80;;
68089;SDS011;54880;50.986;6.990;2023-06-14T00:51:21;13.23;;;5.80;;
68089;SDS011;54880;50.986;6.990;2023-06-14T00:53:46;10.35;;;6.20;;
68089;SDS011;54880;50.986;6.990;2023-06-14T00:56:13;10.75;;;5.90;;
68089;SDS011;54880;50.986;6.990;2023-06-14T00:58:41;9.77;;;5.63;;
68089;SDS011;54880;50.986;6.990;2023-06-14T01:01:06;10.13;;;5.82;;
68089;SDS011;54880;50.986;6.990;2023-06-14T01:03:33;9.82;;;5.80;;
68089;SDS011;54880;50.986;6.990;2023-06-14T01:06:02;10.30;;;6.43;;
68089;SDS011;54880;50.986;6.990;2023-06-14T01:08:41;9.77;;;5.90;;
68089;SDS011;54880;50.986;6.990;2023-06-14T01:11:54;9.30;;;5.73;;
68089;SDS011;54880;50.986;6.990;2023-06-14T01:14:00;9.52;;;5.47;;
68089;SDS011;54880;50.986;6.990;2023-06-14T01:16:26;11.70;;;6.32;;
68089;SDS011;54880;50.986;6.990;2023-06-14T01:18:52;11.18;;;5.68;;
68089;SDS011;54880;50.986;6.990;2023-06-14T01:21:22;9.82;;;6.30;;
68089;SDS011;54880;50.986;6.990;2023-06-14T01:23:47;10.07;;;6.07;;
68089;SDS011;54880;50.986;6.990;2023-06-14T01:26:17;11.20;;;5.97;;
68089;SDS011;54880;50.986;6.990;2023-06-14T01:28:43;10.88;;;6.25;;
68089;SDS011;54880;50.986;6.990;2023-06-14T01:31:16;9.53;;;5.90;;
68089;SDS011;54880;50.986;6.990;2023-06-14T01:33:42;10.90;;;5.93;;
68089;SDS011;54880;50.986;6.990;2023-06-14T01:36:07;13.13;;;6.07;;
68089;SDS011;54880;50.986;6.990;2023-06-14T01:38:33;10.30;;;6.50;;
68089;SDS011;54880;50.986;6.990;2023-06-14T01:40:58;10.90;;;6.27;;
68089;SDS011;54880;50.986;6.990;2023-06-14T01:43:25;12.10;;;6.60;;
68089;SDS011;54880;50.986;6.990;2023-06-14T01:45:51;9.50;;;6.20;;
68089;SDS011;54880;50.986;6.990;2023-06-14T01:48:17;13.15;;;6.30;;
68089;SDS011;54880;50.986;6.990;2023-06-14T01:50:43;9.48;;;6.15;;
68089;SDS011;54880;50.986;6.990;2023-06-14T01:53:08;10.27;;;5.70;;
68089;SDS011;54880;50.986;6.990;2023-06-14T01:55:36;11.65;;;6.00;;
68089;SDS011;54880;50.986;6.990;2023-06-14T01:58:05;8.40;;;5.47;;
68089;SDS011;54880;50.986;6.990;2023-06-14T02:00:31;9.00;;;5.80;;
68089;SDS011;54880;50.986;6.990;2023-06-14T02:02:57;9.15;;;5.85;;
68089;SDS011;54880;50.986;6.990;2023-06-14T02:05:22;12.00;;;6.47;;
68089;SDS011;54880;50.986;6.990;2023-06-14T02:07:47;11.82;;;6.75;;
68089;SDS011;54880;50.986;6.990;2023-06-14T02:10:16;10.23;;;6.38;;
68089;SDS011;54880;50.986;6.990;2023-06-14T02:12:42;10.18;;;6.38;;
68089;SDS011;54880;50.986;6.990;2023-06-14T02:15:08;10.80;;;5.97;;
68089;SDS011;54880;50.986;6.990;2023-06-14T02:17:33;10.32;;;6.10;;
68089;SDS011;54880;50.986;6.990;2023-06-14T02:20:03;13.43;;;6.37;;
68089;SDS011;54880;50.986;6.990;2023-06-14T02:22:30;10.07;;;6.05;;
68089;SDS011;54880;50.986;6.990;2023-06-14T02:24:55;10.40;;;5.87;;
68089;SDS011;54880;50.986;6.990;2023-06-14T02:27:20;11.63;;;6.57;;
68089;SDS011;54880;50.986;6.990;2023-06-14T02:29:45;12.93;;;6.40;;
68089;SDS011;54880;50.986;6.990;2023-06-14T02:32:11;12.20;;;6.00;;
68089;SDS011;54880;50.986;6.990;2023-06-14T02:34:37;10.43;;;6.40;;
68089;SDS011;54880;50.986;6.990;2023-06-14T02:37:06;11.38;;;6.40;;
68089;SDS011;54880;50.986;6.990;2023-06-14T02:39:31;9.60;;;5.90;;
68089;SDS011;54880;50.986;6.990;2023-06-14T02:41:56;11.87;;;6.10;;
68089;SDS011;54880;50.986;6.990;2023-06-14T02:44:25;10.60;;;6.03;;
68089;SDS011;54880;50.986;6.990;2023-06-14T02:46:52;10.43;;;6.05;;
68089;SDS011;54880;50.986;6.990;2023-06-14T02:49:17;9.63;;;6.10;;
68089;SDS011;54880;50.986;6.990;2023-06-14T02:51:43;11.20;;;6.00;;
68089;SDS011;54880;50.986;6.990;2023-06-14T02:54:08;12.30;;;6.13;;
68089;SDS011;54880;50.986;6.990;2023-06-14T02:56:33;10.80;;;6.20;;
68089;SDS011;54880;50.986;6.990;2023-06-14T02:58:58;9.87;;;5.63;;
68089;SDS011;54880;50.986;6.990;2023-06-14T03:01:25;9.82;;;5.88;;
68089;SDS011;54880;50.986;6.990;2023-06-14T03:03:59;10.70;;;6.25;;
68089;SDS011;54880;50.986;6.990;2023-06-14T03:06:24;8.80;;;5.77;;
68089;SDS011;54880;50.986;6.990;2023-06-14T03:08:51;10.82;;;6.28;;
68089;SDS011;54880;50.986;6.990;2023-06-14T03:11:20;10.95;;;5.95;;
68089;SDS011;54880;50.986;6.990;2023-06-14T03:13:46;10.52;;;5.70;;
68089;SDS011;54880;50.986;6.990;2023-06-14T03:16:12;9.97;;;6.17;;
68089;SDS011;54880;50.986;6.990;2023-06-14T03:18:39;12.18;;;6.72;;
68089;SDS011;54880;50.986;6.990;2023-06-14T03:21:05;12.15;;;6.43;;
68089;SDS011;54880;50.986;6.990;2023-06-14T03:23:32;14.13;;;7.03;;
68089;SDS011;54880;50.986;6.990;2023-06-14T03:25:57;11.68;;;5.90;;
68089;SDS011;54880;50.986;6.990;2023-06-14T03:28:23;15.17;;;5.80;;
68089;SDS011;54880;50.986;6.990;2023-06-14T03:30:49;10.82;;;5.50;;
68089;SDS011;54880;50.986;6.990;2023-06-14T03:33:15;10.43;;;5.90;;
68089;SDS011;54880;50.986;6.990;2023-06-14T03:35:41;11.18;;;5.85;;
68089;SDS011;54880;50.986;6.990;2023-06-14T03:38:07;11.55;;;6.20;;
68089;SDS011;54880;50.986;6.990;2023-06-14T03:40:32;15.23;;;6.57;;
68089;SDS011;54880;50.986;6.990;2023-06-14T03:43:03;10.07;;;6.57;;
68089;SDS011;54880;50.986;6.990;2023-06-14T03:45:28;10.53;;;6.23;;
68089;SDS011;54880;50.986;6.990;2023-06-14T03:47:55;10.52;;;5.78;;
68089;SDS011;54880;50.986;6.990;2023-06-14T03:50:21;10.95;;;6.10;;
68089;SDS011;54880;50.986;6.990;2023-06-14T03:52:48;11.73;;;5.90;;
68089;SDS011;54880;50.986;6.990;2023-06-14T03:55:14;10.00;;;5.67;;
68089;SDS011;54880;50.986;6.990;2023-06-14T03:57:41;10.68;;;5.60;;
68089;SDS011;54880;50.986;6.990;2023-06-14T04:00:10;10.45;;;6.38;;
68089;SDS011;54880;50.986;6.990;2023-06-14T04:02:39;9.88;;;6.20;;
68089;SDS011;54880;50.986;6.990;2023-06-14T04:05:05;10.73;;;6.20;;
68089;SDS011;54880;50.986;6.990;2023-06-14T04:07:34;11.48;;;6.05;;
68089;SDS011;54880;50.986;6.990;2023-06-14T04:10:05;11.52;;;6.32;;
68089;SDS011;54880;50.986;6.990;2023-06-14T04:12:31;13.05;;;6.07;;
68089;SDS011;54880;50.986;6.990;2023-06-14T04:14:58;11.02;;;6.45;;
68089;SDS011;54880;50.986;6.990;2023-06-14T04:17:24;12.52;;;6.43;;
68089;SDS011;54880;50.986;6.990;2023-06-14T04:19:49;11.37;;;5.90;;
68089;SDS011;54880;50.986;6.990;2023-06-14T04:22:14;12.50;;;6.17;;
68089;SDS011;54880;50.986;6.990;2023-06-14T04:24:39;13.67;;;6.23;;
68089;SDS011;54880;50.986;6.990;2023-06-14T04:27:07;12.77;;;6.00;;
68089;SDS011;54880;50.986;6.990;2023-06-14T04:29:34;12.18;;;6.55;;
68089;SDS011;54880;50.986;6.990;2023-06-14T04:32:04;11.60;;;6.22;;
68089;SDS011;54880;50.986;6.990;2023-06-14T04:34:31;13.77;;;6.28;;
68089;SDS011;54880;50.986;6.990;2023-06-14T04:36:57;13.07;;;6.38;;
68089;SDS011;54880;50.986;6.990;2023-06-14T04:39:29;11.77;;;5.95;;
68089;SDS011;54880;50.986;6.990;2023-06-14T04:41:55;9.23;;;5.80;;
68089;SDS011;54880;50.986;6.990;2023-06-14T04:44:23;13.02;;;5.93;;
68089;SDS011;54880;50.986;6.990;2023-06-14T04:46:55;10.15;;;5.63;;
68089;SDS011;54880;50.986;6.990;2023-06-14T04:49:22;12.70;;;5.60;;
68089;SDS011;54880;50.986;6.990;2023-06-14T04:51:48;11.13;;;5.60;;
68089;SDS011;54880;50.986;6.990;2023-06-14T04:54:23;10.57;;;5.47;;
68089;SDS011;54880;50.986;6.990;2023-06-14T04:56:50;9.93;;;5.43;;
68089;SDS011;54880;50.986;6.990;2023-06-14T04:59:15;10.63;;;5.78;;
68089;SDS011;54880;50.986;6.990;2023-06-14T05:01:43;9.55;;;5.32;;
68089;SDS011;54880;50.986;6.990;2023-06-14T05:04:13;11.20;;;5.10;;
68089;SDS011;54880;50.986;6.990;2023-06-14T05:06:39;12.98;;;5.30;;
68089;SDS011;54880;50.986;6.990;2023-06-14T05:09:04;10.43;;;5.13;;
68089;SDS011;54880;50.986;6.990;2023-06-14T05:11:30;11.43;;;5.60;;
68089;SDS011;54880;50.986;6.990;2023-06-14T05:13:55;13.20;;;5.47;;
68089;SDS011;54880;50.986;6.990;2023-06-14T05:16:20;11.93;;;5.63;;
68089;SDS011;54880;50.986;6.990;2023-06-14T05:18:48;11.15;;;4.93;;
68089;SDS011;54880;50.986;6.990;2023-06-14T05:21:13;11.30;;;5.10;;
68089;SDS011;54880;50.986;6.990;2023-06-14T05:23:41;10.95;;;4.95;;
68089;SDS011;54880;50.986;6.990;2023-06-14T05:26:06;10.50;;;5.27;;
68089;SDS011;54880;50.986;6.990;2023-06-14T05:28:31;10.50;;;4.57;;
68089;SDS011;54880;50.986;6.990;2023-06-14T05:30:56;10.60;;;4.80;;
68089;SDS011;54880;50.986;6.990;2023-06-14T05:33:23;11.40;;;4.60;;
68089;SDS011;54880;50.986;6.990;2023-06-14T05:35:48;8.73;;;4.90;;
68089;SDS011;54880;50.986;6.990;2023-06-14T05:38:13;10.20;;;3.97;;
68089;SDS011;54880;50.986;6.990;2023-06-14T05:40:39;9.70;;;4.30;;
68089;SDS011;54880;50.986;6.990;2023-06-14T05:43:04;11.80;;;4.20;;
68089;SDS011;54880;50.986;6.990;2023-06-14T05:45:29;9.83;;;4.47;;
68089;SDS011;54880;50.986;6.990;2023-06-14T05:47:54;9.77;;;3.93;;
68089;SDS011;54880;50.986;6.990;2023-06-14T05:50:20;11.83;;;3.87;;
68089;SDS011;54880;50.986;6.990;2023-06-14T05:52:45;7.60;;;4.15;;
68089;SDS011;54880;50.986;6.990;2023-06-14T05:55:11;8.23;;;4.50;;
68089;SDS011;54880;50.986;6.990;2023-06-14T05:57:37;8.65;;;4.55;;
68089;SDS011;54880;50.986;6.990;2023-06-14T06:00:02;7.87;;;4.37;;
68089;SDS011;54880;50.986;6.990;2023-06-14T06:02:37;11.30;;;4.28;;
68089;SDS011;54880;50.986;6.990;2023-06-14T06:05:02;9.80;;;3.80;;
68089;SDS011;54880;50.986;6.990;2023-06-14T06:07:28;8.50;;;4.10;;
68089;SDS011;54880;50.986;6.990;2023-06-14T06:09:53;9.27;;;4.23;;
68089;SDS011;54880;50.986;6.990;2023-06-14T06:12:18;11.67;;;3.87;;
68089;SDS011;54880;50.986;6.990;2023-06-14T06:14:43;10.43;;;4.60;;
68089;SDS011;54880;50.986;6.990;2023-06-14T06:17:11;9.82;;;4.00;;
68089;SDS011;54880;50.986;6.990;2023-06-14T06:19:36;10.13;;;4.70;;
68089;SDS011;54880;50.986;6.990;2023-06-14T06:22:02;9.63;;;4.43;;
68089;SDS011;54880;50.986;6.990;2023-06-14T06:24:27;8.90;;;4.20;;
68089;SDS011;54880;50.986;6.990;2023-06-14T06:26:52;8.93;;;4.20;;
68089;SDS011;54880;50.986;6.990;2023-06-14T06:29:18;10.33;;;4.23;;
68089;SDS011;54880;50.986;6.990;2023-06-14T06:31:43;9.43;;;3.90;;
68089;SDS011;54880;50.986;6.990;2023-06-14T06:34:10;12.35;;;4.18;;
68089;SDS011;54880;50.986;6.990;2023-06-14T06:36:36;8.40;;;4.00;;
68089;SDS011;54880;50.986;6.990;2023-06-14T06:39:02;8.27;;;3.80;;
68089;SDS011;54880;50.986;6.990;2023-06-14T06:41:31;8.27;;;3.50;;
68089;SDS011;54880;50.986;6.990;2023-06-14T06:43:56;8.30;;;4.03;;
68089;SDS011;54880;50.986;6.990;2023-06-14T06:46:27;10.35;;;3.85;;
68089;SDS011;54880;50.986;6.990;2023-06-14T06:48:52;9.97;;;3.40;;
68089;SDS011;54880;50.986;6.990;2023-06-14T06:51:18;10.87;;;3.90;;
68089;SDS011;54880;50.986;6.990;2023-06-14T06:53:51;8.17;;;3.70;;
68089;SDS011;54880;50.986;6.990;2023-06-14T06:56:16;7.15;;;3.08;;
68089;SDS011;54880;50.986;6.990;2023-06-14T06:58:42;7.67;;;3.43;;
68089;SDS011;54880;50.986;6.990;2023-06-14T07:01:07;10.30;;;3.67;;
68089;SDS011;54880;50.986;6.990;2023-06-14T07:03:34;10.50;;;3.80;;
68089;SDS011;54880;50.986;6.990;2023-06-14T07:05:59;7.87;;;3.40;;
68089;SDS011;54880;50.986;6.990;2023-06-14T07:08:24;10.90;;;3.00;;
68089;SDS011;54880;50.986;6.990;2023-06-14T07:10:50;9.47;;;3.27;;
68089;SDS011;54880;50.986;6.990;2023-06-14T07:13:15;10.10;;;3.23;;
68089;SDS011;54880;50.986;6.990;2023-06-14T07:15:40;8.40;;;3.00;;
68089;SDS011;54880;50.986;6.990;2023-06-14T07:18:06;8.07;;;3.30;;
68089;SDS011;54880;50.986;6.990;2023-06-14T07:20:31;7.35;;;2.90;;
68089;SDS011;54880;50.986;6.990;2023-06-14T07:22:58;9.57;;;3.25;;
68089;SDS011;54880;50.986;6.990;2023-06-14T07:25:23;9.03;;;3.23;;
68089;SDS011;54880;50.986;6.990;2023-06-14T07:27:48;6.70;;;3.07;;
68089;SDS011;54880;50.986;6.990;2023-06-14T07:30:13;8.60;;;2.40;;
68089;SDS011;54880;50.986;6.990;2023-06-14T07:32:39;8.27;;;2.50;;
68089;SDS011;54880;50.986;6.990;2023-06-14T07:35:04;5.32;;;2.20;;
68089;SDS011;54880;50.986;6.990;2023-06-14T07:37:30;6.47;;;2.13;;
68089;SDS011;54880;50.986;6.990;2023-06-14T07:39:56;8.30;;;2.10;;
68089;SDS011;54880;50.986;6.990;2023-06-14T07:42:21;9.10;;;2.50;;
68089;SDS011;54880;50.986;6.990;2023-06-14T07:44:46;10.93;;;2.00;;
68089;SDS011;54880;50.986;6.990;2023-06-14T07:47:11;6.32;;;2.03;;
68089;SDS011;54880;50.986;6.990;2023-06-14T07:49:37;7.93;;;2.07;;
68089;SDS011;54880;50.986;6.990;2023-06-14T07:52:02;5.60;;;2.20;;
68089;SDS011;54880;50.986;6.990;2023-06-14T07:54:28;5.70;;;1.90;;
68089;SDS011;54880;50.986;6.990;2023-06-14T07:56:54;8.88;;;2.00;;
68089;SDS011;54880;50.986;6.990;2023-06-14T07:59:21;6.40;;;1.67;;
68089;SDS011;54880;50.986;6.990;2023-06-14T08:01:46;5.20;;;1.70;;
68089;SDS011;54880;50.986;6.990;2023-06-14T08:04:13;5.28;;;1.75;;
68089;SDS011;54880;50.986;6.990;2023-06-14T08:06:38;5.35;;;1.80;;
68089;SDS011;54880;50.986;6.990;2023-06-14T08:09:04;6.32;;;1.60;;
68089;SDS011;54880;50.986;6.990;2023-06-14T08:11:30;5.70;;;1.88;;
68089;SDS011;54880;50.986;6.990;2023-06-14T08:13:55;7.80;;;2.10;;
68089;SDS011;54880;50.986;6.990;2023-06-14T08:16:20;5.70;;;2.07;;
68089;SDS011;54880;50.986;6.990;2023-06-14T08:18:45;5.47;;;1.70;;
68089;SDS011;54880;50.986;6.990;2023-06-14T08:21:11;6.57;;;2.10;;
68089;SDS011;54880;50.986;6.990;2023-06-14T08:23:36;6.20;;;2.10;;
68089;SDS011;54880;50.986;6.990;2023-06-14T08:26:01;6.50;;;2.00;;
68089;SDS011;54880;50.986;6.990;2023-06-14T08:28:29;8.10;;;2.20;;
68089;SDS011;54880;50.986;6.990;2023-06-14T08:30:54;8.35;;;2.50;;
68089;SDS011;54880;50.986;6.990;2023-06-14T08:33:20;5.53;;;2.10;;
68089;SDS011;54880;50.986;6.990;2023-06-14T08:35:45;7.67;;;2.60;;
68089;SDS011;54880;50.986;6.990;2023-06-14T08:38:11;5.60;;;1.83;;
68089;SDS011;54880;50.986;6.990;2023-06-14T08:40:36;5.35;;;2.15;;
68089;SDS011;54880;50.986;6.990;2023-06-14T08:43:02;5.97;;;1.90;;
68089;SDS011;54880;50.986;6.990;2023-06-14T08:45:27;6.97;;;2.23;;
68089;SDS011;54880;50.986;6.990;2023-06-14T08:47:53;6.57;;;2.03;;
68089;SDS011;54880;50.986;6.990;2023-06-14T08:50:23;7.60;;;2.30;;
68089;SDS011;54880;50.986;6.990;2023-06-14T08:52:51;5.47;;;2.03;;
68089;SDS011;54880;50.986;6.990;2023-06-14T08:55:18;6.15;;;2.00;;
68089;SDS011;54880;50.986;6.990;2023-06-14T08:57:45;8.00;;;2.13;;
68089;SDS011;54880;50.986;6.990;2023-06-14T09:00:11;6.47;;;1.90;;
68089;SDS011;54880;50.986;6.990;2023-06-14T09:02:38;5.72;;;1.90;;
68089;SDS011;54880;50.986;6.990;2023-06-14T09:05:03;4.55;;;1.58;;
68089;SDS011;54880;50.986;6.990;2023-06-14T09:07:28;8.55;;;2.22;;
68089;SDS011;54880;50.986;6.990;2023-06-14T09:10:07;5.90;;;1.93;;
68089;SDS011;54880;50.986;6.990;2023-06-14T09:12:32;6.93;;;2.10;;
68089;SDS011;54880;50.986;6.990;2023-06-14T09:14:57;5.20;;;2.10;;
68089;SDS011;54880;50.986;6.990;2023-06-14T09:17:22;7.33;;;2.10;;
68089;SDS011;54880;50.986;6.990;2023-06-14T09:19:48;7.53;;;2.03;;
68089;SDS011;54880;50.986;6.990;2023-06-14T09:22:13;8.00;;;1.97;;
68089;SDS011;54880;50.986;6.990;2023-06-14T09:24:38;6.43;;;2.10;;
68089;SDS011;54880;50.986;6.990;2023-06-14T09:27:04;6.03;;;2.07;;
68089;SDS011;54880;50.986;6.990;2023-06-14T09:29:29;7.27;;;1.70;;
68089;SDS011;54880;50.986;6.990;2023-06-14T09:31:55;5.80;;;2.10;;
68089;SDS011;54880;50.986;6.990;2023-06-14T09:34:21;5.27;;;1.90;;
68089;SDS011;54880;50.986;6.990;2023-06-14T09:36:48;5.35;;;1.80;;
68089;SDS011;54880;50.986;6.990;2023-06-14T09:39:16;7.83;;;2.10;;
68089;SDS011;54880;50.986;6.990;2023-06-14T09:41:42;5.50;;;2.20;;
68089;SDS011;54880;50.986;6.990;2023-06-14T09:44:09;6.40;;;2.20;;
68089;SDS011;54880;50.986;6.990;2023-06-14T09:46:35;5.95;;;1.85;;
68089;SDS011;54880;50.986;6.990;2023-06-14T09:49:01;5.47;;;2.17;;
68089;SDS011;54880;50.986;6.990;2023-06-14T09:51:26;5.55;;;2.20;;
68089;SDS011;54880;50.986;6.990;2023-06-14T09:53:52;6.50;;;2.10;;
68089;SDS011;54880;50.986;6.990;2023-06-14T09:56:22;5.60;;;2.20;;
68089;SDS011;54880;50.986;6.990;2023-06-14T09:58:48;6.72;;;2.08;;
68089;SDS011;54880;50.986;6.990;2023-06-14T10:01:15;8.45;;;2.17;;
68089;SDS011;54880;50.986;6.990;2023-06-14T10:03:40;6.72;;;2.10;;
68089;SDS011;54880;50.986;6.990;2023-06-14T10:06:07;7.00;;;2.23;;
68089;SDS011;54880;50.986;6.990;2023-06-14T10:08:33;6.60;;;2.17;;
68089;SDS011;54880;50.986;6.990;2023-06-14T10:11:02;6.20;;;2.10;;
68089;SDS011;54880;50.986;6.990;2023-06-14T10:13:28;7.23;;;2.60;;
68089;SDS011;54880;50.986;6.990;2023-06-14T10:16:02;6.10;;;2.08;;
68089;SDS011;54880;50.986;6.990;2023-06-14T10:18:32;8.10;;;2.35;;
68089;SDS011;54880;50.986;6.990;2023-06-14T10:21:06;5.20;;;2.30;;
68089;SDS011;54880;50.986;6.990;2023-06-14T10:23:35;5.30;;;2.10;;
68089;SDS011;54880;50.986;6.990;2023-06-14T10:26:02;7.22;;;2.60;;
68089;SDS011;54880;50.986;6.990;2023-06-14T10:28:27;6.13;;;2.20;;
68089;SDS011;54880;50.986;6.990;2023-06-14T10:33:30;7.15;;;2.15;;
68089;SDS011;54880;50.986;6.990;2023-06-14T10:39:18;7.13;;;2.20;;
68089;SDS011;54880;50.986;6.990;2023-06-14T10:41:50;6.18;;;2.20;;
68089;SDS011;54880;50.986;6.990;2023-06-14T10:46:48;7.23;;;2.00;;
68089;SDS011;54880;50.986;6.990;2023-06-14T10:49:16;5.20;;;2.08;;
68089;SDS011;54880;50.986;6.990;2023-06-14T10:51:46;8.30;;;2.10;;
68089;SDS011;54880;50.986;6.990;2023-06-14T10:54:20;8.70;;;2.20;;
68089;SDS011;54880;50.986;6.990;2023-06-14T10:56:49;6.40;;;2.22;;
68089;SDS011;54880;50.986;6.990;2023-06-14T10:59:15;5.57;;;1.83;;
68089;SDS011;54880;50.986;6.990;2023-06-14T11:01:44;4.88;;;1.92;;
68089;SDS011;54880;50.986;6.990;2023-06-14T11:04:12;6.80;;;2.20;;
68089;SDS011;54880;50.986;6.990;2023-06-14T11:06:50;5.60;;;2.35;;
68089;SDS011;54880;50.986;6.990;2023-06-14T11:12:03;5.72;;;1.83;;
68089;SDS011;54880;50.986;6.990;2023-06-14T11:14:31;6.30;;;2.30;;
68089;SDS011;54880;50.986;6.990;2023-06-14T11:16:56;7.10;;;2.38;;
68089;SDS011;54880;50.986;6.990;2023-06-14T11:19:22;5.95;;;2.10;;
68089;SDS011;54880;50.986;6.990;2023-06-14T11:21:50;5.50;;;2.23;;
68089;SDS011;54880;50.986;6.990;2023-06-14T11:24:16;5.80;;;2.20;;
68089;SDS011;54880;50.986;6.990;2023-06-14T11:26:41;6.53;;;2.20;;
68089;SDS011;54880;50.986;6.990;2023-06-14T11:29:07;6.67;;;2.40;;
68089;SDS011;54880;50.986;6.990;2023-06-14T11:31:32;8.43;;;2.20;;
68089;SDS011;54880;50.986;6.990;2023-06-14T11:33:58;7.83;;;2.43;;
68089;SDS011;54880;50.986;6.990;2023-06-14T11:36:26;7.00;;;2.10;;
68089;SDS011;54880;50.986;6.990;2023-06-14T11:38:58;8.05;;;2.20;;
68089;SDS011;54880;50.986;6.990;2023-06-14T11:41:24;7.47;;;2.40;;
68089;SDS011;54880;50.986;6.990;2023-06-14T11:43:52;5.38;;;2.22;;
68089;SDS011;54880;50.986;6.990;2023-06-14T11:46:17;5.35;;;2.17;;
68089;SDS011;54880;50.986;6.990;2023-06-14T11:48:47;6.63;;;2.00;;
68089;SDS011;54880;50.986;6.990;2023-06-14T11:51:12;6.23;;;2.30;;
68089;SDS011;54880;50.986;6.990;2023-06-14T11:53:37;5.17;;;1.80;;
68089;SDS011;54880;50.986;6.990;2023-06-14T11:56:02;4.97;;;1.80;;
68089;SDS011;54880;50.986;6.990;2023-06-14T11:58:28;5.00;;;2.10;;
68089;SDS011;54880;50.986;6.990;2023-06-14T12:00:54;5.95;;;2.08;;
68089;SDS011;54880;50.986;6.990;2023-06-14T12:03:23;7.77;;;2.00;;
68089;SDS011;54880;50.986;6.990;2023-06-14T12:05:50;4.50;;;1.70;;
68089;SDS011;54880;50.986;6.990;2023-06-14T12:08:16;6.40;;;1.92;;
68089;SDS011;54880;50.986;6.990;2023-06-14T12:10:42;6.90;;;2.17;;
68089;SDS011;54880;50.986;6.990;2023-06-14T12:13:12;5.20;;;2.10;;
68089;SDS011;54880;50.986;6.990;2023-06-14T12:15:37;6.83;;;1.83;;
68089;SDS011;54880;50.986;6.990;2023-06-14T12:18:06;5.43;;;1.77;;
68089;SDS011;54880;50.986;6.990;2023-06-14T12:20:34;4.90;;;1.80;;
68089;SDS011;54880;50.986;6.990;2023-06-14T12:23:02;5.93;;;2.17;;
68089;SDS011;54880;50.986;6.990;2023-06-14T12:25:29;5.25;;;1.83;;
68089;SDS011;54880;50.986;6.990;2023-06-14T12:27:57;5.25;;;1.88;;
68089;SDS011;54880;50.986;6.990;2023-06-14T12:30:22;5.87;;;2.00;;
68089;SDS011;54880;50.986;6.990;2023-06-14T12:32:48;5.87;;;1.83;;
68089;SDS011;54880;50.986;6.990;2023-06-14T12:35:13;5.03;;;1.65;;
68089;SDS011;54880;50.986;6.990;2023-06-14T12:37:39;4.73;;;1.90;;
68089;SDS011;54880;50.986;6.990;2023-06-14T12:40:04;5.33;;;2.00;;
68089;SDS011;54880;50.986;6.990;2023-06-14T12:42:32;6.23;;;1.93;;
68089;SDS011;54880;50.986;6.990;2023-06-14T12:44:58;5.13;;;1.90;;
68089;SDS011;54880;50.986;6.990;2023-06-14T12:47:23;5.73;;;2.10;;
68089;SDS011;54880;50.986;6.990;2023-06-14T12:49:49;7.73;;;2.37;;
68089;SDS011;54880;50.986;6.990;2023-06-14T12:52:14;5.40;;;2.00;;
68089;SDS011;54880;50.986;6.990;2023-06-14T12:54:39;4.83;;;1.70;;
68089;SDS011;54880;50.986;6.990;2023-06-14T12:57:06;4.55;;;1.80;;
68089;SDS011;54880;50.986;6.990;2023-06-14T12:59:31;5.95;;;1.90;;
68089;SDS011;54880;50.986;6.990;2023-06-14T13:01:59;5.05;;;2.08;;
68089;SDS011;54880;50.986;6.990;2023-06-14T13:04:25;5.50;;;1.97;;
68089;SDS011;54880;50.986;6.990;2023-06-14T13:06:50;7.23;;;1.97;;
68089;SDS011;54880;50.986;6.990;2023-06-14T13:09:15;6.37;;;2.10;;
68089;SDS011;54880;50.986;6.990;2023-06-14T13:11:40;6.43;;;2.10;;
68089;SDS011;54880;50.986;6.990;2023-06-14T13:14:06;6.97;;;2.10;;
68089;SDS011;54880;50.986;6.990;2023-06-14T13:16:31;4.70;;;1.63;;
68089;SDS011;54880;50.986;6.990;2023-06-14T13:18:56;6.73;;;2.00;;
68089;SDS011;54880;50.986;6.990;2023-06-14T13:21:21;5.23;;;2.00;;
68089;SDS011;54880;50.986;6.990;2023-06-14T13:23:47;5.93;;;2.27;;
68089;SDS011;54880;50.986;6.990;2023-06-14T13:26:12;5.57;;;2.00;;
68089;SDS011;54880;50.986;6.990;2023-06-14T13:28:37;6.43;;;2.10;;
68089;SDS011;54880;50.986;6.990;2023-06-14T13:31:02;5.23;;;1.93;;
68089;SDS011;54880;50.986;6.990;2023-06-14T13:33:28;6.67;;;2.20;;
68089;SDS011;54880;50.986;6.990;2023-06-14T13:35:53;4.83;;;1.70;;
68089;SDS011;54880;50.986;6.990;2023-06-14T13:38:18;7.30;;;2.03;;
68089;SDS011;54880;50.986;6.990;2023-06-14T13:40:44;8.77;;;2.60;;
68089;SDS011;54880;50.986;6.990;2023-06-14T13:43:09;7.43;;;2.50;;
68089;SDS011;54880;50.986;6.990;2023-06-14T13:45:35;6.00;;;2.35;;
68089;SDS011;54880;50.986;6.990;2023-06-14T13:48:00;5.87;;;2.43;;
68089;SDS011;54880;50.986;6.990;2023-06-14T13:50:25;6.03;;;2.80;;
68089;SDS011;54880;50.986;6.990;2023-06-14T13:52:50;6.67;;;2.57;;
68089;SDS011;54880;50.986;6.990;2023-06-14T13:55:16;6.83;;;2.60;;
68089;SDS011;54880;50.986;6.990;2023-06-14T13:57:41;6.90;;;2.47;;
68089;SDS011;54880;50.986;6.990;2023-06-14T14:00:06;5.60;;;1.93;;
68089;SDS011;54880;50.986;6.990;2023-06-14T14:02:40;8.38;;;2.35;;
68089;SDS011;54880;50.986;6.990;2023-06-14T14:05:06;5.80;;;2.70;;
68089;SDS011;54880;50.986;6.990;2023-06-14T14:07:31;5.27;;;2.20;;
68089;SDS011;54880;50.986;6.990;2023-06-14T14:09:57;5.93;;;2.30;;
68089;SDS011;54880;50.986;6.990;2023-06-14T14:12:22;6.63;;;2.43;;
68089;SDS011;54880;50.986;6.990;2023-06-14T14:14:48;5.53;;;2.38;;
68089;SDS011;54880;50.986;6.990;2023-06-14T14:17:13;5.47;;;2.17;;
68089;SDS011;54880;50.986;6.990;2023-06-14T14:19:38;6.03;;;2.03;;
68089;SDS011;54880;50.986;6.990;2023-06-14T14:22:04;7.93;;;2.33;;
68089;SDS011;54880;50.986;6.990;2023-06-14T14:24:30;7.53;;;2.50;;
68089;SDS011;54880;50.986;6.990;2023-06-14T14:26:55;5.43;;;2.50;;
68089;SDS011;54880;50.986;6.990;2023-06-14T14:29:24;6.00;;;2.50;;
68089;SDS011;54880;50.986;6.990;2023-06-14T14:31:50;6.30;;;2.40;;
68089;SDS011;54880;50.986;6.990;2023-06-14T14:34:15;5.37;;;2.03;;
68089;SDS011;54880;50.986;6.990;2023-06-14T14:36:40;7.87;;;2.10;;
68089;SDS011;54880;50.986;6.990;2023-06-14T14:39:07;6.80;;;1.90;;
68089;SDS011;54880;50.986;6.990;2023-06-14T14:41:33;7.20;;;2.28;;
68089;SDS011;54880;50.986;6.990;2023-06-14T14:43:58;5.30;;;2.30;;
68089;SDS011;54880;50.986;6.990;2023-06-14T14:46:25;5.63;;;2.72;;
68089;SDS011;54880;50.986;6.990;2023-06-14T14:48:51;6.30;;;2.10;;